Bondar 95 — FM3971 — position and weather

sailwx.info

Track history (hours):
 
Tides and Currents Weather Stations Pressure Air Temp Water Temp Dewpoint Dewpoint Depression Visibility Wind Speed Wind Dir Waves Ship Positions

Bondar 95

Last reported at 2017-Oct-17 15:31 UTC. Time now 2017-Oct-19 16:56 UTC.
Position N 44°17' E 028°04'.

Length 213 m; draft 0.2 m.

Type: Ship. MMSI: 227133971.

Date/timePositionNaut miles runAvg speedWind from/ knotsBaromVisibWave heightAir tempDewpointWater temp
2017-Oct-17 15:31N 44°17' E 028°04'0 6.9
2017-Oct-17 15:30N 44°17' E 028°04'3 6.7
2017-Oct-17 15:00N 44°16' E 028°09'3 7.0
2017-Oct-17 14:30N 44°15' E 028°13'3 6.9
2017-Oct-17 14:00N 44°15' E 028°18'3 6.3
2017-Oct-17 13:30N 44°14' E 028°22'3 6.8
2017-Oct-17 13:00N 44°11' E 028°24'7 6.0
2017-Oct-17 11:50N 44°06' E 028°31'2 6.9
2017-Oct-17 11:30N 44°06' E 028°35'2 3.1
2017-Oct-17 10:55N 44°06' E 028°37'0 1.1
2017-Oct-17 10:30N 44°06' E 028°38'0 0.0
2017-Oct-17 09:58N 44°06' E 028°38'0 0.0
2017-Oct-17 09:30N 44°06' E 028°38'1 2.8
2017-Oct-17 09:00N 44°07' E 028°39'0 0.2
2017-Oct-17 08:30N 44°07' E 028°39'0 0.0
2017-Oct-17 07:54N 44°07' E 028°39'0 0.0
2017-Oct-17 07:27N 44°07' E 028°39'0 0.0
2017-Oct-17 06:58N 44°07' E 028°39'0 0.0
2017-Oct-17 06:28N 44°07' E 028°39'0 0.0
2017-Oct-17 05:54N 44°07' E 028°39'0 0.0
2017-Oct-17 05:25N 44°07' E 028°39'0 0.0
2017-Oct-17 04:58N 44°07' E 028°39'0 0.0
2017-Oct-17 04:27N 44°07' E 028°39'0 0.0
2017-Oct-17 03:52N 44°07' E 028°39'0 0.0
2017-Oct-17 03:15N 44°07' E 028°39'0 0.0
2017-Oct-17 03:00N 44°07' E 028°39'0 0.0
2017-Oct-17 02:25N 44°07' E 028°39'0 0.0
2017-Oct-17 01:56N 44°07' E 028°39'0 0.0
2017-Oct-17 01:29N 44°07' E 028°39'0 0.0
2017-Oct-17 01:00N 44°07' E 028°39'0 0.0
2017-Oct-17 00:30N 44°07' E 028°39'0 0.0
2017-Oct-16 23:57N 44°07' E 028°39'0 0.0
2017-Oct-16 23:30N 44°07' E 028°39'0 0.0
2017-Oct-16 22:59N 44°07' E 028°39'0 0.0
2017-Oct-16 22:29N 44°07' E 028°39'0 0.0
2017-Oct-16 21:58N 44°07' E 028°39'0 0.0
2017-Oct-16 21:28N 44°07' E 028°39'0 0.0
2017-Oct-16 20:59N 44°07' E 028°39'0 0.0
2017-Oct-16 20:29N 44°07' E 028°39'0 0.0
2017-Oct-16 19:56N 44°07' E 028°39'0 0.0
2017-Oct-16 19:28N 44°07' E 028°39'0 0.0
2017-Oct-16 18:59N 44°07' E 028°39'0 0.0
2017-Oct-16 18:29N 44°07' E 028°39'0 0.0
2017-Oct-16 17:58N 44°07' E 028°39'0 0.0
2017-Oct-16 17:28N 44°07' E 028°39'0 0.0
2017-Oct-16 16:59N 44°07' E 028°39'0 0.1
2017-Oct-16 16:28N 44°07' E 028°39'1 1.3
2017-Oct-16 15:56N 44°06' E 028°39'1 1.5
2017-Oct-16 15:29N 44°07' E 028°39'0 0.0
2017-Oct-16 14:59N 44°07' E 028°39'0 0.0
2017-Oct-16 13:57N 44°07' E 028°39'0 0.0
2017-Oct-16 13:30N 44°07' E 028°39'0 0.0
2017-Oct-16 13:00N 44°07' E 028°39'0 0.2
2017-Oct-16 12:31N 44°07' E 028°39'1 1.3
2017-Oct-16 12:00N 44°06' E 028°39'1 1.4
2017-Oct-16 11:28N 44°07' E 028°39'0 0.0
2017-Oct-16 11:00N 44°07' E 028°39'0 0.0
2017-Oct-16 10:27N 44°07' E 028°39'0 0.0
2017-Oct-16 10:00N 44°07' E 028°39'0 0.0
2017-Oct-16 09:28N 44°07' E 028°39'0 0.0
2017-Oct-16 08:58N 44°07' E 028°39'0 0.0
2017-Oct-16 08:30N 44°07' E 028°39'0 0.0
2017-Oct-16 07:59N 44°07' E 028°39'0 0.0
2017-Oct-16 07:25N 44°07' E 028°39'0 0.0
2017-Oct-16 06:53N 44°07' E 028°39'0 0.0
2017-Oct-16 06:29N 44°07' E 028°39'0 0.0
2017-Oct-16 05:58N 44°07' E 028°39'1 1.6
2017-Oct-16 05:30N 44°06' E 028°39'0 0.0
2017-Oct-16 05:00N 44°06' E 028°39'0 0.0
2017-Oct-16 04:29N 44°06' E 028°39'0 0.0
2017-Oct-16 03:57N 44°06' E 028°39'0 0.0
2017-Oct-16 03:28N 44°06' E 028°39'0 0.0
2017-Oct-16 03:00N 44°06' E 028°39'0 0.0
2017-Oct-16 02:29N 44°06' E 028°39'0 0.0
2017-Oct-16 01:56N 44°06' E 028°39'0 0.0
2017-Oct-16 01:30N 44°06' E 028°39'0 0.0
2017-Oct-16 00:59N 44°06' E 028°39'0 0.0
2017-Oct-16 00:30N 44°06' E 028°39'0 0.0
2017-Oct-15 23:55N 44°06' E 028°39'0 0.0
2017-Oct-15 23:30N 44°06' E 028°39'0 0.0
2017-Oct-15 23:00N 44°06' E 028°39'0 0.0
2017-Oct-15 22:28N 44°06' E 028°39'0 0.0
2017-Oct-15 21:58N 44°06' E 028°39'0 0.0
2017-Oct-15 21:24N 44°06' E 028°39'0 0.0
2017-Oct-15 20:59N 44°06' E 028°39'0 0.0
2017-Oct-15 20:29N 44°06' E 028°39'0 0.0
2017-Oct-15 19:57N 44°06' E 028°39'0 0.0
2017-Oct-15 19:30N 44°06' E 028°39'0 0.0
2017-Oct-15 18:59N 44°06' E 028°39'0 0.0
2017-Oct-15 18:28N 44°06' E 028°39'0 0.3
2017-Oct-15 17:57N 44°07' E 028°39'1 1.3
2017-Oct-15 17:30N 44°07' E 028°39'0 0.0
2017-Oct-15 16:58N 44°07' E 028°39'0 0.0
2017-Oct-15 16:29N 44°07' E 028°39'0 0.0
2017-Oct-15 16:00N 44°07' E 028°39'0 0.0
2017-Oct-15 15:28N 44°07' E 028°39'0 0.0
2017-Oct-15 14:58N 44°07' E 028°39'0 0.0
2017-Oct-15 13:58N 44°07' E 028°39'0 0.0
2017-Oct-15 13:29N 44°07' E 028°39'0 0.0
2017-Oct-15 12:57N 44°07' E 028°39'0 0.0
2017-Oct-15 12:29N 44°07' E 028°39'0 0.2
2017-Oct-15 11:54N 44°07' E 028°39'0 0.3
2017-Oct-15 11:30N 44°07' E 028°39'0 0.2
2017-Oct-15 11:00N 44°07' E 028°39'1 1.4
2017-Oct-15 10:30N 44°07' E 028°39'1 2.5
2017-Oct-15 09:59N 44°06' E 028°37'0 0.5
2017-Oct-15 09:30N 44°06' E 028°37'2 4.8
2017-Oct-15 09:00N 44°06' E 028°33'6 4.3
2017-Oct-15 07:30N 44°09' E 028°26'3 4.7
2017-Oct-15 06:57N 44°11' E 028°24'2 4.6
2017-Oct-15 06:30N 44°13' E 028°23'2 5.0
2017-Oct-15 06:00N 44°15' E 028°20'3 5.3
2017-Oct-15 05:30N 44°15' E 028°16'3 5.1
2017-Oct-15 05:00N 44°15' E 028°13'2 5.0
2017-Oct-15 04:30N 44°16' E 028°10'2 5.0
2017-Oct-15 04:00N 44°16' E 028°06'3 5.0
2017-Oct-15 03:29N 44°18' E 028°03'  
Track history (hours):
 
Tides and Currents Weather Stations Pressure Air Temp Water Temp Dewpoint Dewpoint Depression Visibility Wind Speed Wind Dir Waves Ship Positions

Bondar 95

Last reported at 2017-Oct-17 15:31 UTC. Time now 2017-Oct-19 16:56 UTC.
Position N 44°17' E 028°04'.

Length 213 m; draft 0.2 m.

Type: Ship. MMSI: 227133971.

Date/timePositionNaut miles runAvg speedWind from/ knotsBaromVisibWave heightAir tempDewpointWater temp
2017-Oct-17 15:31N 44°17' E 028°04'0 6.9
2017-Oct-17 15:30N 44°17' E 028°04'3 6.7
2017-Oct-17 15:00N 44°16' E 028°09'3 7.0
2017-Oct-17 14:30N 44°15' E 028°13'3 6.9
2017-Oct-17 14:00N 44°15' E 028°18'3 6.3
2017-Oct-17 13:30N 44°14' E 028°22'3 6.8
2017-Oct-17 13:00N 44°11' E 028°24'7 6.0
2017-Oct-17 11:50N 44°06' E 028°31'2 6.9
2017-Oct-17 11:30N 44°06' E 028°35'2 3.1
2017-Oct-17 10:55N 44°06' E 028°37'0 1.1
2017-Oct-17 10:30N 44°06' E 028°38'0 0.0
2017-Oct-17 09:58N 44°06' E 028°38'0 0.0
2017-Oct-17 09:30N 44°06' E 028°38'1 2.8
2017-Oct-17 09:00N 44°07' E 028°39'0 0.2
2017-Oct-17 08:30N 44°07' E 028°39'0 0.0
2017-Oct-17 07:54N 44°07' E 028°39'0 0.0
2017-Oct-17 07:27N 44°07' E 028°39'0 0.0
2017-Oct-17 06:58N 44°07' E 028°39'0 0.0
2017-Oct-17 06:28N 44°07' E 028°39'0 0.0
2017-Oct-17 05:54N 44°07' E 028°39'0 0.0
2017-Oct-17 05:25N 44°07' E 028°39'0 0.0
2017-Oct-17 04:58N 44°07' E 028°39'0 0.0
2017-Oct-17 04:27N 44°07' E 028°39'0 0.0
2017-Oct-17 03:52N 44°07' E 028°39'0 0.0
2017-Oct-17 03:15N 44°07' E 028°39'0 0.0
2017-Oct-17 03:00N 44°07' E 028°39'0 0.0
2017-Oct-17 02:25N 44°07' E 028°39'0 0.0
2017-Oct-17 01:56N 44°07' E 028°39'0 0.0
2017-Oct-17 01:29N 44°07' E 028°39'0 0.0
2017-Oct-17 01:00N 44°07' E 028°39'0 0.0
2017-Oct-17 00:30N 44°07' E 028°39'0 0.0
2017-Oct-16 23:57N 44°07' E 028°39'0 0.0
2017-Oct-16 23:30N 44°07' E 028°39'0 0.0
2017-Oct-16 22:59N 44°07' E 028°39'0 0.0
2017-Oct-16 22:29N 44°07' E 028°39'0 0.0
2017-Oct-16 21:58N 44°07' E 028°39'0 0.0
2017-Oct-16 21:28N 44°07' E 028°39'0 0.0
2017-Oct-16 20:59N 44°07' E 028°39'0 0.0
2017-Oct-16 20:29N 44°07' E 028°39'0 0.0
2017-Oct-16 19:56N 44°07' E 028°39'0 0.0
2017-Oct-16 19:28N 44°07' E 028°39'0 0.0
2017-Oct-16 18:59N 44°07' E 028°39'0 0.0
2017-Oct-16 18:29N 44°07' E 028°39'0 0.0
2017-Oct-16 17:58N 44°07' E 028°39'0 0.0
2017-Oct-16 17:28N 44°07' E 028°39'0 0.0
2017-Oct-16 16:59N 44°07' E 028°39'0 0.1
2017-Oct-16 16:28N 44°07' E 028°39'1 1.3
2017-Oct-16 15:56N 44°06' E 028°39'1 1.5
2017-Oct-16 15:29N 44°07' E 028°39'0 0.0
2017-Oct-16 14:59N 44°07' E 028°39'0 0.0
2017-Oct-16 13:57N 44°07' E 028°39'0 0.0
2017-Oct-16 13:30N 44°07' E 028°39'0 0.0
2017-Oct-16 13:00N 44°07' E 028°39'0 0.2
2017-Oct-16 12:31N 44°07' E 028°39'1 1.3
2017-Oct-16 12:00N 44°06' E 028°39'1 1.4
2017-Oct-16 11:28N 44°07' E 028°39'0 0.0
2017-Oct-16 11:00N 44°07' E 028°39'0 0.0
2017-Oct-16 10:27N 44°07' E 028°39'0 0.0
2017-Oct-16 10:00N 44°07' E 028°39'0 0.0
2017-Oct-16 09:28N 44°07' E 028°39'0 0.0
2017-Oct-16 08:58N 44°07' E 028°39'0 0.0
2017-Oct-16 08:30N 44°07' E 028°39'0 0.0
2017-Oct-16 07:59N 44°07' E 028°39'0 0.0
2017-Oct-16 07:25N 44°07' E 028°39'0 0.0
2017-Oct-16 06:53N 44°07' E 028°39'0 0.0
2017-Oct-16 06:29N 44°07' E 028°39'0 0.0
2017-Oct-16 05:58N 44°07' E 028°39'1 1.6
2017-Oct-16 05:30N 44°06' E 028°39'0 0.0
2017-Oct-16 05:00N 44°06' E 028°39'0 0.0
2017-Oct-16 04:29N 44°06' E 028°39'0 0.0
2017-Oct-16 03:57N 44°06' E 028°39'0 0.0
2017-Oct-16 03:28N 44°06' E 028°39'0 0.0
2017-Oct-16 03:00N 44°06' E 028°39'0 0.0
2017-Oct-16 02:29N 44°06' E 028°39'0 0.0
2017-Oct-16 01:56N 44°06' E 028°39'0 0.0
2017-Oct-16 01:30N 44°06' E 028°39'0 0.0
2017-Oct-16 00:59N 44°06' E 028°39'0 0.0
2017-Oct-16 00:30N 44°06' E 028°39'0 0.0
2017-Oct-15 23:55N 44°06' E 028°39'0 0.0
2017-Oct-15 23:30N 44°06' E 028°39'0 0.0
2017-Oct-15 23:00N 44°06' E 028°39'0 0.0
2017-Oct-15 22:28N 44°06' E 028°39'0 0.0
2017-Oct-15 21:58N 44°06' E 028°39'0 0.0
2017-Oct-15 21:24N 44°06' E 028°39'0 0.0
2017-Oct-15 20:59N 44°06' E 028°39'0 0.0
2017-Oct-15 20:29N 44°06' E 028°39'0 0.0
2017-Oct-15 19:57N 44°06' E 028°39'0 0.0
2017-Oct-15 19:30N 44°06' E 028°39'0 0.0
2017-Oct-15 18:59N 44°06' E 028°39'0 0.0
2017-Oct-15 18:28N 44°06' E 028°39'0 0.3
2017-Oct-15 17:57N 44°07' E 028°39'1 1.3
2017-Oct-15 17:30N 44°07' E 028°39'0 0.0
2017-Oct-15 16:58N 44°07' E 028°39'0 0.0
2017-Oct-15 16:29N 44°07' E 028°39'0 0.0
2017-Oct-15 16:00N 44°07' E 028°39'0 0.0
2017-Oct-15 15:28N 44°07' E 028°39'0 0.0
2017-Oct-15 14:58N 44°07' E 028°39'0 0.0
2017-Oct-15 13:58N 44°07' E 028°39'0 0.0
2017-Oct-15 13:29N 44°07' E 028°39'0 0.0
2017-Oct-15 12:57N 44°07' E 028°39'0 0.0
2017-Oct-15 12:29N 44°07' E 028°39'0 0.2
2017-Oct-15 11:54N 44°07' E 028°39'0 0.3
2017-Oct-15 11:30N 44°07' E 028°39'0 0.2
2017-Oct-15 11:00N 44°07' E 028°39'1 1.4
2017-Oct-15 10:30N 44°07' E 028°39'1 2.5
2017-Oct-15 09:59N 44°06' E 028°37'0 0.5
2017-Oct-15 09:30N 44°06' E 028°37'2 4.8
2017-Oct-15 09:00N 44°06' E 028°33'6 4.3
2017-Oct-15 07:30N 44°09' E 028°26'3 4.7
2017-Oct-15 06:57N 44°11' E 028°24'2 4.6
2017-Oct-15 06:30N 44°13' E 028°23'2 5.0
2017-Oct-15 06:00N 44°15' E 028°20'3 5.3
2017-Oct-15 05:30N 44°15' E 028°16'3 5.1
2017-Oct-15 05:00N 44°15' E 028°13'2 5.0
2017-Oct-15 04:30N 44°16' E 028°10'2 5.0
2017-Oct-15 04:00N 44°16' E 028°06'3 5.0
2017-Oct-15 03:29N 44°18' E 028°03'  

Dump ship's entire track history